• Join FlightAware (Why Join?)
  • Login
  • US Flag 
02:37AM EDT


 

Airport Tracker/Info


-or-


 

Live Flight TrackerFlight Track Log ✈ N210BB ✈ 12-Sep-2013 ✈ KMQB - KSER

Flight Track Log - Related Links

Times and Time Zones

All times are in EDT time to prevent confusion due to time zone crossing. See the N210BB flight status page for this flight to view local times or setup timezone preferences in your user account.

Time Position Orientation Groundspeed Altitude Reporting Facility
EDT Latitude Longitude Course Direction KTS MPH feet Rate Location/Type
01:02PM 40.3811 -90.3344 113° Southeast 147 169 5,400  Level Chicago Center
01:03PM 40.3619 -90.2753 113° Southeast 148 170 6,000 480 Climbing Chicago Center
01:04PM 40.3472 -90.2253 111° Southeast 148 170 6,500 480 Climbing Chicago Center
01:05PM 40.3322 -90.1758 112° Southeast 147 169 7,000 480 Climbing Chicago Center
01:06PM 40.3158 -90.1275 114° Southeast 146 168 7,600 540 Climbing Chicago Center
01:07PM 40.3008 -90.0767 111° Southeast 149 171 8,200 540 Climbing Chicago Center
01:08PM 40.4120 -90.3042 113° Southeast  Level Estimated
01:08PM 40.2833 -90.0144 110° East 152 175 8,800  Level Kansas City Center
01:09PM 40.2658 -89.9594 113° Southeast 156 180 8,900  Climbing Kansas City Center
01:10PM 40.2483 -89.9003 111° Southeast 165 190 8,900  Level Kansas City Center
01:11PM 40.2294 -89.8383 112° Southeast 176 203 8,900  Level Chicago Center
01:12PM 40.2114 -89.7797 112° Southeast 176 203 8,900  Level Chicago Center
01:14PM 40.1922 -89.7183 112° Southeast 179 206 8,900 -60 Level Chicago Center
01:15PM 40.1736 -89.6583 112° Southeast 179 206 8,800  Descending Chicago Center
01:16PM 40.1503 -89.5853 113° Southeast 182 209 8,900  Climbing Chicago Center
01:17PM 40.1322 -89.5256 112° Southeast 178 205 8,900  Level Chicago Center
01:18PM 40.1153 -89.4672 111° Southeast 178 205 8,900  Level Kansas City Center
01:19PM 40.0967 -89.4064 112° Southeast 179 206 8,900  Level Kansas City Center
01:20PM 40.0769 -89.3492 114° Southeast 175 201 8,900 -60 Level Kansas City Center
01:21PM 40.0550 -89.2781 112° Southeast 177 204 8,800  Descending Kansas City Center
01:22PM 40.0358 -89.2206 114° Southeast 175 201 8,900  Climbing Kansas City Center
01:23PM 40.0169 -89.1611 113° Southeast 177 204 8,900  Level Kansas City Center
01:24PM 39.9981 -89.1008 112° Southeast 177 204 8,900 -60 Level Chicago Center
01:25PM 39.9797 -89.0419 112° Southeast 175 201 8,800  Descending Chicago Center
01:26PM 39.9611 -88.9839 113° Southeast 176 203 8,900  Climbing Chicago Center
01:27PM 39.9394 -88.9133 112° Southeast 174 200 8,900  Level Chicago Center
01:28PM 39.9208 -88.8539 112° Southeast 175 201 8,900 -60 Level Chicago Center
01:29PM 39.9011 -88.7964 114° Southeast 176 203 8,800  Descending Chicago Center
01:30PM 39.8825 -88.7386 113° Southeast 173 199 8,900  Climbing Chicago Center
01:31PM 39.8642 -88.6819 113° Southeast 175 201 8,900  Level Kansas City Center
01:32PM 39.8461 -88.6228 112° Southeast 175 201 8,900  Level Kansas City Center
01:33PM 39.8222 -88.5533 114° Southeast 175 201 8,900  Level Kansas City Center
01:34PM 39.8039 -88.4956 112° Southeast 174 200 8,900  Level Kansas City Center
01:35PM 39.7833 -88.4386 115° Southeast 175 201 8,900  Level Kansas City Center
01:36PM 39.7664 -88.3800 111° Southeast 172 198 8,900  Level Kansas City Center
01:38PM 39.7281 -88.2617 113° Southeast 170 196 8,900  Level Indianapolis Center
01:39PM 39.7078 -88.2042 115° Southeast 174 200 8,900  Level Indianapolis Center
01:40PM 39.6897 -88.1464 112° Southeast 174 200 8,900  Level Indianapolis Center
01:41PM 39.6717 -88.0900 113° Southeast 171 197 8,900  Level Indianapolis Center
01:42PM 39.6525 -88.0328 113° Southeast 173 199 8,900  Level Indianapolis Center
01:43PM 39.6339 -87.9769 113° Southeast 171 197 8,900  Level Indianapolis Center
01:44PM 39.6106 -87.9086 114° Southeast 172 198 8,900  Level Indianapolis Center
01:45PM 39.5933 -87.8514 111° Southeast 172 198 8,900 -60 Level Indianapolis Center
01:46PM 39.5736 -87.7933 114° Southeast 175 201 8,800  Descending Indianapolis Center
01:48PM 39.5544 -87.7375 114° Southeast 172 198 8,900  Climbing Indianapolis Center
01:49PM 39.5353 -87.6825 114° Southeast 171 197 8,900 -60 Level Indianapolis Center
01:50PM 39.5169 -87.6258 113° Southeast 171 197 8,800  Descending Indianapolis Center
01:51PM 39.4969 -87.5692 115° Southeast 173 199 8,900  Climbing Indianapolis Center
01:52PM 39.4750 -87.5025 113° Southeast 170 196 8,900  Level Indianapolis Center
01:53PM 39.4575 -87.4461 112° Southeast 169 194 8,900  Level Indianapolis Center
01:54PM 39.4378 -87.3903 115° Southeast 171 197 8,900 -60 Level Indianapolis Center
01:55PM 39.4192 -87.3353 114° Southeast 169 194 8,800 -60 Descending Indianapolis Center
01:56PM 39.4000 -87.2781 113° Southeast 172 198 8,800  Level Indianapolis Center
01:57PM 39.3819 -87.2219 113° Southeast 172 198 8,900  Climbing Indianapolis Center
01:58PM 39.3633 -87.1664 113° Southeast 170 196 8,800  Descending Indianapolis Center
01:59PM 39.3417 -87.0986 112° Southeast 171 197 8,900  Climbing Indianapolis Center
02:00PM 39.3214 -87.0419 115° Southeast 172 198 8,900  Level Indianapolis Center
02:01PM 39.3008 -86.9839 115° Southeast 175 201 8,900  Level Indianapolis Center
02:02PM 39.2806 -86.9278 115° Southeast 175 201 8,900 -60 Level Indianapolis Center
02:03PM 39.2619 -86.8739 114° Southeast 169 194 8,800  Descending Indianapolis Center
02:04PM 39.2403 -86.8192 117° Southeast 170 196 8,900  Climbing Indianapolis Center
02:05PM 39.2186 -86.7497 112° Southeast 173 199 8,900  Level Indianapolis Center
02:06PM 39.1986 -86.6919 114° Southeast 176 203 8,900  Level Indianapolis Center
02:07PM 39.1792 -86.6344 114° Southeast 177 204 8,900  Level Indianapolis Center
02:08PM 39.1589 -86.5778 115° Southeast 175 201 8,900  Level Indianapolis Center
02:09PM 39.1386 -86.5214 115° Southeast 175 201 8,900 -300 Level Indianapolis Center
02:10PM 39.1183 -86.4611 113° Southeast 180 207 8,400 -600 Descending Indianapolis Center
02:11PM 39.0925 -86.3861 114° Southeast 189 217 7,700 -600 Descending Indianapolis Center
02:12PM 39.0708 -86.3225 114° Southeast 193 222 7,200 -540 Descending Indianapolis Center
02:13PM 39.0486 -86.2617 115° Southeast 192 221 6,600 -540 Descending Indianapolis Center
02:14PM 39.0283 -86.2025 114° Southeast 185 213 6,200 -300 Descending Indianapolis Center
02:15PM 39.0081 -86.1447 114° Southeast 181 208 6,000 -120 Descending Indianapolis Center
02:16PM 38.9886 -86.0903 115° Southeast 173 199 6,000  Level Indianapolis Center